sensor_id;sensor_type;location;lat;lon;timestamp;pressure;altitude;pressure_sealevel;temperature;humidity
25638;BME280;13496;51.040;13.680;2023-01-25T00:04:41;101802.84;;;15.92;56.50
25638;BME280;13496;51.040;13.680;2023-01-25T00:09:43;101797.59;;;15.92;56.51
25638;BME280;13496;51.040;13.680;2023-01-25T00:14:45;101798.41;;;15.93;56.25
25638;BME280;13496;51.040;13.680;2023-01-25T00:19:46;101787.13;;;15.92;56.38
25638;BME280;13496;51.040;13.680;2023-01-25T00:24:48;101787.00;;;15.94;56.43
25638;BME280;13496;51.040;13.680;2023-01-25T00:29:49;101792.34;;;15.92;55.83
25638;BME280;13496;51.040;13.680;2023-01-25T00:34:51;101791.41;;;15.93;56.30
25638;BME280;13496;51.040;13.680;2023-01-25T00:39:53;101787.13;;;15.92;56.29
25638;BME280;13496;51.040;13.680;2023-01-25T00:44:54;101790.56;;;15.93;56.27
25638;BME280;13496;51.040;13.680;2023-01-25T00:49:56;101789.88;;;15.91;56.37
25638;BME280;13496;51.040;13.680;2023-01-25T00:54:58;101789.88;;;15.91;56.59
25638;BME280;13496;51.040;13.680;2023-01-25T00:59:59;101781.06;;;15.92;56.45
25638;BME280;13496;51.040;13.680;2023-01-25T01:05:01;101772.25;;;15.93;56.18
25638;BME280;13496;51.040;13.680;2023-01-25T01:10:03;101781.88;;;15.92;56.29
25638;BME280;13496;51.040;13.680;2023-01-25T01:15:05;101776.66;;;15.92;56.33
25638;BME280;13496;51.040;13.680;2023-01-25T01:20:10;101765.22;;;15.93;56.25
25638;BME280;13496;51.040;13.680;2023-01-25T01:25:11;101767.00;;;15.93;56.28
25638;BME280;13496;51.040;13.680;2023-01-25T01:30:15;101762.72;;;15.92;56.27
25638;BME280;13496;51.040;13.680;2023-01-25T01:35:17;101760.13;;;15.92;56.30
25638;BME280;13496;51.040;13.680;2023-01-25T01:40:18;101734.78;;;15.92;56.23
25638;BME280;13496;51.040;13.680;2023-01-25T01:50:46;101719.06;;;15.92;56.15
25638;BME280;13496;51.040;13.680;2023-01-25T01:55:55;101718.34;;;15.90;56.17
25638;BME280;13496;51.040;13.680;2023-01-25T02:00:58;101715.63;;;15.92;56.13
25638;BME280;13496;51.040;13.680;2023-01-25T02:06:11;101701.69;;;15.91;56.17
25638;BME280;13496;51.040;13.680;2023-01-25T02:11:14;101699.91;;;15.92;56.16
25638;BME280;13496;51.040;13.680;2023-01-25T02:16:18;101700.75;;;15.92;56.25
25638;BME280;13496;51.040;13.680;2023-01-25T02:21:23;101703.50;;;15.91;56.19
25638;BME280;13496;51.040;13.680;2023-01-25T02:26:25;101690.25;;;15.92;55.95
25638;BME280;13496;51.040;13.680;2023-01-25T02:31:28;101670.28;;;15.91;56.01
25638;BME280;13496;51.040;13.680;2023-01-25T02:36:31;101675.53;;;15.91;55.92
25638;BME280;13496;51.040;13.680;2023-01-25T02:41:39;101673.84;;;15.90;56.07
25638;BME280;13496;51.040;13.680;2023-01-25T02:46:43;101665.06;;;15.91;56.03
25638;BME280;13496;51.040;13.680;2023-01-25T02:51:49;101661.47;;;15.92;56.05
25638;BME280;13496;51.040;13.680;2023-01-25T02:56:51;101653.75;;;15.91;56.08
25638;BME280;13496;51.040;13.680;2023-01-25T03:01:53;101636.25;;;15.91;55.97
25638;BME280;13496;51.040;13.680;2023-01-25T03:06:55;101649.34;;;15.91;56.01
25638;BME280;13496;51.040;13.680;2023-01-25T03:11:57;101644.94;;;15.92;56.44
25638;BME280;13496;51.040;13.680;2023-01-25T03:16:58;101650.03;;;15.93;56.00
25638;BME280;13496;51.040;13.680;2023-01-25T03:22:01;101642.31;;;15.92;56.03
25638;BME280;13496;51.040;13.680;2023-01-25T03:27:03;101641.50;;;15.91;56.04
25638;BME280;13496;51.040;13.680;2023-01-25T03:32:33;101638.88;;;15.91;55.88
25638;BME280;13496;51.040;13.680;2023-01-25T03:37:40;101641.50;;;15.91;55.98
25638;BME280;13496;51.040;13.680;2023-01-25T03:42:42;101638.88;;;15.91;56.06
25638;BME280;13496;51.040;13.680;2023-01-25T03:47:44;101636.25;;;15.91;55.94
25638;BME280;13496;51.040;13.680;2023-01-25T03:52:46;101624.09;;;15.90;55.89
25638;BME280;13496;51.040;13.680;2023-01-25T03:57:51;101628.41;;;15.91;55.87
25638;BME280;13496;51.040;13.680;2023-01-25T04:02:54;101637.09;;;15.92;55.88
25638;BME280;13496;51.040;13.680;2023-01-25T04:07:55;101626.63;;;15.92;56.11
25638;BME280;13496;51.040;13.680;2023-01-25T04:13:05;101613.63;;;15.90;56.05
25638;BME280;13496;51.040;13.680;2023-01-25T04:18:08;101614.34;;;15.92;55.89
25638;BME280;13496;51.040;13.680;2023-01-25T04:23:10;101608.41;;;15.90;55.93
25638;BME280;13496;51.040;13.680;2023-01-25T04:28:13;101617.81;;;15.93;55.98
25638;BME280;13496;51.040;13.680;2023-01-25T04:33:15;101614.09;;;15.95;56.17
25638;BME280;13496;51.040;13.680;2023-01-25T04:38:18;101611.50;;;15.95;56.32
25638;BME280;13496;51.040;13.680;2023-01-25T04:43:21;101618.53;;;15.95;56.51
25638;BME280;13496;51.040;13.680;2023-01-25T04:48:27;101613.28;;;15.95;56.48
25638;BME280;13496;51.040;13.680;2023-01-25T04:53:35;101620.31;;;15.94;56.48
25638;BME280;13496;51.040;13.680;2023-01-25T04:58:40;101608.03;;;15.95;56.55
25638;BME280;13496;51.040;13.680;2023-01-25T05:03:41;101612.47;;;15.94;56.41
25638;BME280;13496;51.040;13.680;2023-01-25T05:08:55;101605.44;;;15.95;56.47
25638;BME280;13496;51.040;13.680;2023-01-25T05:13:57;101606.25;;;15.95;56.59
25638;BME280;13496;51.040;13.680;2023-01-25T05:19:04;101603.63;;;15.95;56.53
25638;BME280;13496;51.040;13.680;2023-01-25T05:24:16;101595.06;;;15.93;56.53
25638;BME280;13496;51.040;13.680;2023-01-25T05:29:18;101602.81;;;15.95;56.62
25638;BME280;13496;51.040;13.680;2023-01-25T05:34:35;101593.28;;;15.94;56.47
25638;BME280;13496;51.040;13.680;2023-01-25T05:39:37;101586.28;;;15.94;56.62
25638;BME280;13496;51.040;13.680;2023-01-25T05:44:39;101584.34;;;15.96;56.81
25638;BME280;13496;51.040;13.680;2023-01-25T05:49:42;101581.72;;;15.96;57.00
25638;BME280;13496;51.040;13.680;2023-01-25T05:54:49;101569.47;;;15.97;56.97
25638;BME280;13496;51.040;13.680;2023-01-25T05:59:50;101576.63;;;15.95;56.83
25638;BME280;13496;51.040;13.680;2023-01-25T06:04:54;101576.75;;;15.93;57.35
25638;BME280;13496;51.040;13.680;2023-01-25T06:09:56;101568.88;;;15.93;57.31
25638;BME280;13496;51.040;13.680;2023-01-25T06:14:58;101572.22;;;15.95;57.01
25638;BME280;13496;51.040;13.680;2023-01-25T06:20:00;101573.06;;;15.96;57.13
25638;BME280;13496;51.040;13.680;2023-01-25T06:25:09;101577.31;;;15.97;57.04
25638;BME280;13496;51.040;13.680;2023-01-25T06:30:11;101579.13;;;15.96;57.15
25638;BME280;13496;51.040;13.680;2023-01-25T06:35:12;101567.00;;;15.95;57.23
25638;BME280;13496;51.040;13.680;2023-01-25T06:40:14;101568.88;;;15.93;57.33
25638;BME280;13496;51.040;13.680;2023-01-25T06:45:16;101574.84;;;15.95;57.29
25638;BME280;13496;51.040;13.680;2023-01-25T06:50:18;101559.25;;;15.94;57.26
25638;BME280;13496;51.040;13.680;2023-01-25T06:55:20;101559.25;;;15.94;57.20
25638;BME280;13496;51.040;13.680;2023-01-25T07:00:22;101559.25;;;15.94;57.34
25638;BME280;13496;51.040;13.680;2023-01-25T07:05:24;101559.00;;;15.97;57.27
25638;BME280;13496;51.040;13.680;2023-01-25T07:10:25;101551.13;;;15.97;57.05
25638;BME280;13496;51.040;13.680;2023-01-25T07:15:27;101535.44;;;15.97;57.07
25638;BME280;13496;51.040;13.680;2023-01-25T07:20:29;101538.88;;;15.97;57.13
25638;BME280;13496;51.040;13.680;2023-01-25T07:25:30;101527.47;;;15.99;56.93
25638;BME280;13496;51.040;13.680;2023-01-25T07:30:32;101525.69;;;15.99;57.10
25638;BME280;13496;51.040;13.680;2023-01-25T07:35:34;101534.22;;;16.01;57.18
25638;BME280;13496;51.040;13.680;2023-01-25T07:40:35;101518.66;;;16.00;57.06
25638;BME280;13496;51.040;13.680;2023-01-25T07:45:37;101513.28;;;16.01;56.96
25638;BME280;13496;51.040;13.680;2023-01-25T07:50:39;101507.22;;;16.01;56.88
25638;BME280;13496;51.040;13.680;2023-01-25T07:55:41;101506.38;;;16.00;57.05
25638;BME280;13496;51.040;13.680;2023-01-25T08:00:43;101500.31;;;16.00;56.84
25638;BME280;13496;51.040;13.680;2023-01-25T08:05:45;101490.53;;;16.02;56.86
25638;BME280;13496;51.040;13.680;2023-01-25T08:10:46;101489.59;;;16.03;56.83
25638;BME280;13496;51.040;13.680;2023-01-25T08:15:52;101491.50;;;16.01;56.95
25638;BME280;13496;51.040;13.680;2023-01-25T08:20:58;101485.31;;;16.02;56.88
25638;BME280;13496;51.040;13.680;2023-01-25T08:26:07;101480.94;;;16.02;56.98
25638;BME280;13496;51.040;13.680;2023-01-25T08:31:15;101486.03;;;16.04;56.73
25638;BME280;13496;51.040;13.680;2023-01-25T08:36:18;101486.03;;;16.04;56.66
25638;BME280;13496;51.040;13.680;2023-01-25T08:41:20;101491.25;;;16.04;56.82
25638;BME280;13496;51.040;13.680;2023-01-25T08:46:24;101483.16;;;16.07;56.77
25638;BME280;13496;51.040;13.680;2023-01-25T08:51:27;101480.66;;;16.05;56.71
25638;BME280;13496;51.040;13.680;2023-01-25T08:56:29;101478.75;;;16.07;56.78
25638;BME280;13496;51.040;13.680;2023-01-25T09:01:31;101476.94;;;16.08;56.69
25638;BME280;13496;51.040;13.680;2023-01-25T09:06:32;101476.84;;;16.09;56.28
25638;BME280;13496;51.040;13.680;2023-01-25T09:11:34;101473.38;;;16.09;56.41
25638;BME280;13496;51.040;13.680;2023-01-25T09:16:38;101462.78;;;16.10;56.48
25638;BME280;13496;51.040;13.680;2023-01-25T09:21:40;101462.63;;;16.12;56.50
25638;BME280;13496;51.040;13.680;2023-01-25T09:26:42;101450.50;;;16.11;56.27
25638;BME280;13496;51.040;13.680;2023-01-25T09:31:43;101443.47;;;16.11;56.26
25638;BME280;13496;51.040;13.680;2023-01-25T09:36:55;101445.97;;;16.13;56.39
25638;BME280;13496;51.040;13.680;2023-01-25T09:58:02;101439.53;;;16.17;55.97
25638;BME280;13496;51.040;13.680;2023-01-25T10:03:20;101446.41;;;16.18;56.16
25638;BME280;13496;51.040;13.680;2023-01-25T10:08:33;101443.66;;;16.19;56.04
25638;BME280;13496;51.040;13.680;2023-01-25T10:13:36;101440.09;;;16.20;55.90
25638;BME280;13496;51.040;13.680;2023-01-25T10:24:20;101432.09;;;16.22;55.98
25638;BME280;13496;51.040;13.680;2023-01-25T10:29:29;101416.38;;;16.22;55.83
25638;BME280;13496;51.040;13.680;2023-01-25T10:34:38;101416.25;;;16.24;55.77
25638;BME280;13496;51.040;13.680;2023-01-25T10:44:55;101385.66;;;16.24;55.80
25638;BME280;13496;51.040;13.680;2023-01-25T10:49:58;101383.72;;;16.26;55.65
25638;BME280;13496;51.040;13.680;2023-01-25T10:55:10;101372.28;;;16.27;55.52
25638;BME280;13496;51.040;13.680;2023-01-25T11:00:28;101377.25;;;16.30;55.55
25638;BME280;13496;51.040;13.680;2023-01-25T11:05:36;101356.47;;;16.29;55.64
25638;BME280;13496;51.040;13.680;2023-01-25T11:10:38;101343.22;;;16.30;55.43
25638;BME280;13496;51.040;13.680;2023-01-25T11:15:46;101340.59;;;16.30;55.63
25638;BME280;13496;51.040;13.680;2023-01-25T11:21:11;101341.41;;;16.31;55.52
25638;BME280;13496;51.040;13.680;2023-01-25T11:26:17;101337.84;;;16.32;55.50
25638;BME280;13496;51.040;13.680;2023-01-25T11:31:21;101322.97;;;16.32;55.44
25638;BME280;13496;51.040;13.680;2023-01-25T11:36:39;101320.09;;;16.35;55.56
25638;BME280;13496;51.040;13.680;2023-01-25T11:42:04;101313.16;;;16.34;55.38
25638;BME280;13496;51.040;13.680;2023-01-25T11:53:02;101284.34;;;16.34;55.48
25638;BME280;13496;51.040;13.680;2023-01-25T11:58:22;101280.78;;;16.35;55.22
25638;BME280;13496;51.040;13.680;2023-01-25T12:03:55;101270.03;;;16.38;55.25
25638;BME280;13496;51.040;13.680;2023-01-25T12:31:11;101209.38;;;16.43;55.22
25638;BME280;13496;51.040;13.680;2023-01-25T12:36:26;101192.53;;;16.45;55.08
25638;BME280;13496;51.040;13.680;2023-01-25T12:46:36;101195.03;;;16.47;54.89
25638;BME280;13496;51.040;13.680;2023-01-25T12:51:40;101173.13;;;16.48;54.80
25638;BME280;13496;51.040;13.680;2023-01-25T12:57:05;101161.81;;;16.48;55.02
25638;BME280;13496;51.040;13.680;2023-01-25T13:02:21;101171.59;;;16.45;54.87
25638;BME280;13496;51.040;13.680;2023-01-25T13:08:00;101164.44;;;16.48;54.97
25638;BME280;13496;51.040;13.680;2023-01-25T13:23:36;101140.69;;;16.49;54.76
25638;BME280;13496;51.040;13.680;2023-01-25T13:28:44;101134.63;;;16.49;54.78
25638;BME280;13496;51.040;13.680;2023-01-25T13:33:46;101122.38;;;16.49;54.85
25638;BME280;13496;51.040;13.680;2023-01-25T13:38:48;101124.03;;;16.50;54.84
25638;BME280;13496;51.040;13.680;2023-01-25T13:49:20;101110.94;;;16.50;54.88
25638;BME280;13496;51.040;13.680;2023-01-25T13:54:22;101100.47;;;16.50;54.68
25638;BME280;13496;51.040;13.680;2023-01-25T13:59:26;101084.03;;;16.48;54.70
25638;BME280;13496;51.040;13.680;2023-01-25T14:04:28;101091.91;;;16.48;54.67
25638;BME280;13496;51.040;13.680;2023-01-25T14:09:33;101087.47;;;16.49;54.90
25638;BME280;13496;51.040;13.680;2023-01-25T14:14:36;101077.00;;;16.49;54.72
25638;BME280;13496;51.040;13.680;2023-01-25T14:19:39;101060.47;;;16.48;54.90
25638;BME280;13496;51.040;13.680;2023-01-25T14:24:41;101065.84;;;16.47;54.61
25638;BME280;13496;51.040;13.680;2023-01-25T14:29:47;101058.00;;;16.47;54.81
25638;BME280;13496;51.040;13.680;2023-01-25T14:34:49;101059.66;;;16.48;54.66
25638;BME280;13496;51.040;13.680;2023-01-25T14:39:51;101051.38;;;16.42;55.02
25638;BME280;13496;51.040;13.680;2023-01-25T14:44:52;101044.47;;;16.41;54.83
25638;BME280;13496;51.040;13.680;2023-01-25T14:49:54;101039.41;;;16.40;55.04
25638;BME280;13496;51.040;13.680;2023-01-25T14:54:58;101030.03;;;16.37;54.85
25638;BME280;13496;51.040;13.680;2023-01-25T15:00:06;101026.59;;;16.37;55.08
25638;BME280;13496;51.040;13.680;2023-01-25T15:05:21;101026.72;;;16.35;55.02
25638;BME280;13496;51.040;13.680;2023-01-25T15:10:30;101013.09;;;16.32;55.18
25638;BME280;13496;51.040;13.680;2023-01-25T15:15:34;101003.44;;;16.32;55.11
25638;BME280;13496;51.040;13.680;2023-01-25T15:20:38;100988.00;;;16.29;55.20
25638;BME280;13496;51.040;13.680;2023-01-25T15:25:53;100981.94;;;16.29;55.30
25638;BME280;13496;51.040;13.680;2023-01-25T15:30:55;100981.13;;;16.28;54.99
25638;BME280;13496;51.040;13.680;2023-01-25T15:35:59;100972.56;;;16.26;55.11
25638;BME280;13496;51.040;13.680;2023-01-25T15:41:01;100962.38;;;16.23;55.35
25638;BME280;13496;51.040;13.680;2023-01-25T15:46:03;100965.97;;;16.22;55.26
25638;BME280;13496;51.040;13.680;2023-01-25T15:51:06;100964.19;;;16.23;55.30
25638;BME280;13496;51.040;13.680;2023-01-25T15:56:19;100955.50;;;16.22;55.54
25638;BME280;13496;51.040;13.680;2023-01-25T16:01:23;100951.25;;;16.21;55.22
25638;BME280;13496;51.040;13.680;2023-01-25T16:06:43;100933.72;;;16.21;55.54
25638;BME280;13496;51.040;13.680;2023-01-25T16:11:50;100938.16;;;16.21;55.33
25638;BME280;13496;51.040;13.680;2023-01-25T16:16:52;100926.84;;;16.20;55.28
25638;BME280;13496;51.040;13.680;2023-01-25T16:21:54;100914.88;;;16.18;55.21
25638;BME280;13496;51.040;13.680;2023-01-25T16:26:57;100910.44;;;16.18;55.41
25638;BME280;13496;51.040;13.680;2023-01-25T16:31:59;100914.16;;;16.16;55.44
25638;BME280;13496;51.040;13.680;2023-01-25T16:37:00;100902.75;;;16.17;55.44
25638;BME280;13496;51.040;13.680;2023-01-25T16:42:02;100888.97;;;16.15;55.58
25638;BME280;13496;51.040;13.680;2023-01-25T16:47:04;100884.69;;;16.14;55.58
25638;BME280;13496;51.040;13.680;2023-01-25T16:52:06;100890.59;;;16.16;55.77
25638;BME280;13496;51.040;13.680;2023-01-25T16:57:08;100877.66;;;16.14;55.61
25638;BME280;13496;51.040;13.680;2023-01-25T17:02:11;100876.84;;;16.14;55.58
25638;BME280;13496;51.040;13.680;2023-01-25T17:07:13;100875.88;;;16.15;55.48
25638;BME280;13496;51.040;13.680;2023-01-25T17:12:14;100872.56;;;16.13;55.61
25638;BME280;13496;51.040;13.680;2023-01-25T17:17:16;100864.69;;;16.13;55.72
25638;BME280;13496;51.040;13.680;2023-01-25T17:22:18;100855.22;;;16.12;55.56
25638;BME280;13496;51.040;13.680;2023-01-25T17:27:19;100848.34;;;16.11;55.66
25638;BME280;13496;51.040;13.680;2023-01-25T17:32:21;100847.50;;;16.10;55.84
25638;BME280;13496;51.040;13.680;2023-01-25T17:37:24;100841.47;;;16.10;55.78
25638;BME280;13496;51.040;13.680;2023-01-25T17:42:26;100832.78;;;16.09;55.65
25638;BME280;13496;51.040;13.680;2023-01-25T17:47:27;100833.59;;;16.10;55.67
25638;BME280;13496;51.040;13.680;2023-01-25T17:52:29;100829.31;;;16.09;55.67
25638;BME280;13496;51.040;13.680;2023-01-25T17:57:31;100819.81;;;16.08;55.68
25638;BME280;13496;51.040;13.680;2023-01-25T18:02:32;100822.44;;;16.08;55.70
25638;BME280;13496;51.040;13.680;2023-01-25T18:07:34;100810.34;;;16.07;55.79
25638;BME280;13496;51.040;13.680;2023-01-25T18:12:36;100812.78;;;16.08;55.71
25638;BME280;13496;51.040;13.680;2023-01-25T18:17:38;100806.72;;;16.08;55.74
25638;BME280;13496;51.040;13.680;2023-01-25T18:22:39;100805.91;;;16.07;55.97
25638;BME280;13496;51.040;13.680;2023-01-25T18:27:42;100791.03;;;16.08;55.81
25638;BME280;13496;51.040;13.680;2023-01-25T18:32:43;100787.75;;;16.06;55.78
25638;BME280;13496;51.040;13.680;2023-01-25T18:37:45;100799.31;;;16.03;55.85
25638;BME280;13496;51.040;13.680;2023-01-25T18:42:47;100796.53;;;16.05;55.93
25638;BME280;13496;51.040;13.680;2023-01-25T18:47:49;100794.63;;;16.07;55.79
25638;BME280;13496;51.040;13.680;2023-01-25T18:52:51;100786.91;;;16.05;55.82
25638;BME280;13496;51.040;13.680;2023-01-25T18:57:53;100783.47;;;16.05;55.90
25638;BME280;13496;51.040;13.680;2023-01-25T19:02:58;100778.22;;;16.05;55.74
25638;BME280;13496;51.040;13.680;2023-01-25T19:07:59;100759.91;;;16.05;55.62
25638;BME280;13496;51.040;13.680;2023-01-25T19:13:01;100750.56;;;16.02;56.01
25638;BME280;13496;51.040;13.680;2023-01-25T19:18:03;100739.94;;;16.04;55.84
25638;BME280;13496;51.040;13.680;2023-01-25T19:23:04;100726.84;;;16.04;55.91
25638;BME280;13496;51.040;13.680;2023-01-25T19:28:08;100720.78;;;16.03;55.84
25638;BME280;13496;51.040;13.680;2023-01-25T19:33:10;100717.19;;;16.04;55.91
25638;BME280;13496;51.040;13.680;2023-01-25T19:38:12;100716.38;;;16.04;56.29
25638;BME280;13496;51.040;13.680;2023-01-25T19:43:13;100702.31;;;16.05;55.96
25638;BME280;13496;51.040;13.680;2023-01-25T19:48:15;100705.91;;;16.04;56.32
25638;BME280;13496;51.040;13.680;2023-01-25T19:53:17;100697.06;;;16.05;56.29
25638;BME280;13496;51.040;13.680;2023-01-25T19:58:18;100695.44;;;16.04;56.35
25638;BME280;13496;51.040;13.680;2023-01-25T20:03:20;100707.53;;;16.05;56.21
25638;BME280;13496;51.040;13.680;2023-01-25T20:08:22;100693.63;;;16.04;56.26
25638;BME280;13496;51.040;13.680;2023-01-25T20:13:23;100690.03;;;16.05;56.43
25638;BME280;13496;51.040;13.680;2023-01-25T20:18:25;100687.44;;;16.05;56.42
25638;BME280;13496;51.040;13.680;2023-01-25T20:23:32;100679.56;;;16.05;56.49
25638;BME280;13496;51.040;13.680;2023-01-25T20:28:35;100685.78;;;16.04;56.49
25638;BME280;13496;51.040;13.680;2023-01-25T20:33:37;100671.88;;;16.04;56.57
25638;BME280;13496;51.040;13.680;2023-01-25T20:38:38;100674.22;;;16.07;56.43
25638;BME280;13496;51.040;13.680;2023-01-25T20:43:54;100662.09;;;16.06;56.37
25638;BME280;13496;51.040;13.680;2023-01-25T20:49:03;100658.50;;;16.07;56.43
25638;BME280;13496;51.040;13.680;2023-01-25T20:54:05;100647.22;;;16.06;56.50
25638;BME280;13496;51.040;13.680;2023-01-25T20:59:07;100645.25;;;16.08;56.50
25638;BME280;13496;51.040;13.680;2023-01-25T21:04:09;100636.75;;;16.06;56.38
25638;BME280;13496;51.040;13.680;2023-01-25T21:09:11;100626.09;;;16.08;56.31
25638;BME280;13496;51.040;13.680;2023-01-25T21:14:14;100632.31;;;16.07;56.56
25638;BME280;13496;51.040;13.680;2023-01-25T21:19:15;100615.63;;;16.08;56.50
25638;BME280;13496;51.040;13.680;2023-01-25T21:24:17;100613.84;;;16.08;56.35
25638;BME280;13496;51.040;13.680;2023-01-25T21:29:19;100615.63;;;16.08;56.41
25638;BME280;13496;51.040;13.680;2023-01-25T21:34:21;100604.50;;;16.06;56.59
25638;BME280;13496;51.040;13.680;2023-01-25T21:39:23;100605.97;;;16.08;56.52
25638;BME280;13496;51.040;13.680;2023-01-25T21:44:24;100606.16;;;16.07;56.42
25638;BME280;13496;51.040;13.680;2023-01-25T21:49:45;100598.28;;;16.07;56.36
25638;BME280;13496;51.040;13.680;2023-01-25T21:55:07;100593.06;;;16.07;56.59
25638;BME280;13496;51.040;13.680;2023-01-25T22:00:09;100584.22;;;16.08;56.38
25638;BME280;13496;51.040;13.680;2023-01-25T22:05:12;100591.25;;;16.07;56.69
25638;BME280;13496;51.040;13.680;2023-01-25T22:10:14;100593.72;;;16.09;56.61
25638;BME280;13496;51.040;13.680;2023-01-25T22:15:16;100596.19;;;16.10;56.57
25638;BME280;13496;51.040;13.680;2023-01-25T22:20:18;100595.38;;;16.10;56.36
25638;BME280;13496;51.040;13.680;2023-01-25T22:25:19;100578.00;;;16.09;56.30
25638;BME280;13496;51.040;13.680;2023-01-25T22:30:21;100565.78;;;16.09;56.54
25638;BME280;13496;51.040;13.680;2023-01-25T22:35:23;100569.03;;;16.11;56.39
25638;BME280;13496;51.040;13.680;2023-01-25T22:40:25;100557.75;;;16.11;56.60
25638;BME280;13496;51.040;13.680;2023-01-25T22:45:26;100557.59;;;16.12;56.46
25638;BME280;13496;51.040;13.680;2023-01-25T22:50:28;100561.88;;;16.13;56.43
25638;BME280;13496;51.040;13.680;2023-01-25T22:55:30;100563.00;;;16.11;56.50
25638;BME280;13496;51.040;13.680;2023-01-25T23:00:32;100551.41;;;16.13;56.37
25638;BME280;13496;51.040;13.680;2023-01-25T23:05:34;100543.53;;;16.13;56.49
25638;BME280;13496;51.040;13.680;2023-01-25T23:10:36;100540.06;;;16.13;56.41
25638;BME280;13496;51.040;13.680;2023-01-25T23:15:40;100535.81;;;16.12;56.36
25638;BME280;13496;51.040;13.680;2023-01-25T23:20:42;100535.81;;;16.12;56.36
25638;BME280;13496;51.040;13.680;2023-01-25T23:25:45;100520.94;;;16.12;56.34
25638;BME280;13496;51.040;13.680;2023-01-25T23:30:47;100512.13;;;16.13;56.21
25638;BME280;13496;51.040;13.680;2023-01-25T23:35:49;100504.41;;;16.12;56.42
25638;BME280;13496;51.040;13.680;2023-01-25T23:40:50;100488.72;;;16.12;56.32
25638;BME280;13496;51.040;13.680;2023-01-25T23:45:52;100487.72;;;16.13;56.35
25638;BME280;13496;51.040;13.680;2023-01-25T23:50:54;100479.88;;;16.13;56.40
25638;BME280;13496;51.040;13.680;2023-01-25T23:56:15;100477.13;;;16.14;56.12
